sensor_id;sensor_type;location;lat;lon;timestamp;P1;durP1;ratioP1;P2;durP2;ratioP2
53642;SDS011;39546;45.534;12.048;2022-12-07T00:07:52;12.13;;;9.45;;
53642;SDS011;39546;45.534;12.048;2022-12-07T00:13:59;8.52;;;6.10;;
53642;SDS011;39546;45.534;12.048;2022-12-07T00:26:07;10.18;;;9.10;;
53642;SDS011;39546;45.534;12.048;2022-12-07T00:32:11;13.82;;;11.25;;
53642;SDS011;39546;45.534;12.048;2022-12-07T00:38:13;9.50;;;6.93;;
53642;SDS011;39546;45.534;12.048;2022-12-07T00:44:40;12.60;;;9.88;;
53642;SDS011;39546;45.534;12.048;2022-12-07T00:50:42;16.40;;;13.15;;
53642;SDS011;39546;45.534;12.048;2022-12-07T00:56:44;15.70;;;10.98;;
53642;SDS011;39546;45.534;12.048;2022-12-07T01:02:46;11.77;;;10.57;;
53642;SDS011;39546;45.534;12.048;2022-12-07T01:08:48;11.48;;;9.25;;
53642;SDS011;39546;45.534;12.048;2022-12-07T01:14:50;11.00;;;8.07;;
53642;SDS011;39546;45.534;12.048;2022-12-07T01:20:59;14.07;;;10.10;;
53642;SDS011;39546;45.534;12.048;2022-12-07T01:27:06;12.15;;;8.95;;
53642;SDS011;39546;45.534;12.048;2022-12-07T01:33:08;11.52;;;9.25;;
53642;SDS011;39546;45.534;12.048;2022-12-07T01:39:10;11.68;;;8.95;;
53642;SDS011;39546;45.534;12.048;2022-12-07T01:51:37;8.82;;;6.62;;
53642;SDS011;39546;45.534;12.048;2022-12-07T01:57:47;12.75;;;8.15;;
53642;SDS011;39546;45.534;12.048;2022-12-07T02:03:52;10.40;;;7.25;;
53642;SDS011;39546;45.534;12.048;2022-12-07T02:09:55;11.82;;;6.60;;
53642;SDS011;39546;45.534;12.048;2022-12-07T02:41:30;8.88;;;7.75;;
53642;SDS011;39546;45.534;12.048;2022-12-07T02:47:51;9.68;;;6.95;;
53642;SDS011;39546;45.534;12.048;2022-12-07T02:53:57;9.50;;;8.45;;
53642;SDS011;39546;45.534;12.048;2022-12-07T03:06:11;8.70;;;6.00;;
53642;SDS011;39546;45.534;12.048;2022-12-07T03:12:43;8.75;;;6.50;;
53642;SDS011;39546;45.534;12.048;2022-12-07T03:18:53;11.00;;;8.40;;
53642;SDS011;39546;45.534;12.048;2022-12-07T03:25:01;9.57;;;7.55;;
53642;SDS011;39546;45.534;12.048;2022-12-07T03:31:11;10.38;;;6.53;;
53642;SDS011;39546;45.534;12.048;2022-12-07T03:43:32;8.77;;;6.10;;
53642;SDS011;39546;45.534;12.048;2022-12-07T03:55:47;11.82;;;7.82;;
53642;SDS011;39546;45.534;12.048;2022-12-07T04:01:54;12.45;;;8.52;;
53642;SDS011;39546;45.534;12.048;2022-12-07T04:07:57;10.02;;;6.55;;
53642;SDS011;39546;45.534;12.048;2022-12-07T04:14:02;8.07;;;6.10;;
53642;SDS011;39546;45.534;12.048;2022-12-07T04:20:22;16.17;;;7.65;;
53642;SDS011;39546;45.534;12.048;2022-12-07T04:26:25;8.55;;;6.45;;
53642;SDS011;39546;45.534;12.048;2022-12-07T04:32:27;6.90;;;4.82;;
53642;SDS011;39546;45.534;12.048;2022-12-07T04:38:29;11.02;;;7.97;;
53642;SDS011;39546;45.534;12.048;2022-12-07T04:44:31;12.15;;;9.18;;
53642;SDS011;39546;45.534;12.048;2022-12-07T04:50:34;10.25;;;6.68;;
53642;SDS011;39546;45.534;12.048;2022-12-07T04:56:39;9.75;;;7.03;;
53642;SDS011;39546;45.534;12.048;2022-12-07T05:02:41;10.05;;;7.28;;
53642;SDS011;39546;45.534;12.048;2022-12-07T05:08:43;7.70;;;5.62;;
53642;SDS011;39546;45.534;12.048;2022-12-07T05:14:45;8.05;;;5.40;;
53642;SDS011;39546;45.534;12.048;2022-12-07T05:20:47;7.95;;;5.43;;
53642;SDS011;39546;45.534;12.048;2022-12-07T05:26:50;9.02;;;6.03;;
53642;SDS011;39546;45.534;12.048;2022-12-07T05:32:56;6.87;;;5.12;;
53642;SDS011;39546;45.534;12.048;2022-12-07T05:38:59;9.98;;;6.62;;
53642;SDS011;39546;45.534;12.048;2022-12-07T05:45:01;9.32;;;6.55;;
53642;SDS011;39546;45.534;12.048;2022-12-07T05:51:05;9.57;;;7.70;;
53642;SDS011;39546;45.534;12.048;2022-12-07T05:57:11;8.98;;;6.65;;
53642;SDS011;39546;45.534;12.048;2022-12-07T06:03:13;10.25;;;8.68;;
53642;SDS011;39546;45.534;12.048;2022-12-07T06:09:15;10.00;;;7.82;;
53642;SDS011;39546;45.534;12.048;2022-12-07T06:15:19;11.50;;;7.72;;
53642;SDS011;39546;45.534;12.048;2022-12-07T06:21:21;9.73;;;6.35;;
53642;SDS011;39546;45.534;12.048;2022-12-07T06:27:23;9.55;;;6.53;;
53642;SDS011;39546;45.534;12.048;2022-12-07T06:33:25;13.38;;;10.30;;
53642;SDS011;39546;45.534;12.048;2022-12-07T06:39:28;12.10;;;9.13;;
53642;SDS011;39546;45.534;12.048;2022-12-07T06:45:31;15.50;;;10.63;;
53642;SDS011;39546;45.534;12.048;2022-12-07T06:51:35;9.90;;;7.32;;
53642;SDS011;39546;45.534;12.048;2022-12-07T06:57:37;11.32;;;7.55;;
53642;SDS011;39546;45.534;12.048;2022-12-07T07:03:39;11.63;;;8.88;;
53642;SDS011;39546;45.534;12.048;2022-12-07T07:09:41;9.48;;;7.60;;
53642;SDS011;39546;45.534;12.048;2022-12-07T07:15:44;14.07;;;10.68;;
53642;SDS011;39546;45.534;12.048;2022-12-07T07:21:46;10.75;;;7.75;;
53642;SDS011;39546;45.534;12.048;2022-12-07T07:27:51;9.40;;;7.10;;
53642;SDS011;39546;45.534;12.048;2022-12-07T07:33:53;16.58;;;11.18;;
53642;SDS011;39546;45.534;12.048;2022-12-07T07:39:55;16.10;;;12.50;;
53642;SDS011;39546;45.534;12.048;2022-12-07T07:45:57;13.60;;;10.15;;
53642;SDS011;39546;45.534;12.048;2022-12-07T07:51:59;12.90;;;9.55;;
53642;SDS011;39546;45.534;12.048;2022-12-07T07:58:01;10.60;;;7.97;;
53642;SDS011;39546;45.534;12.048;2022-12-07T08:04:04;9.30;;;7.10;;
53642;SDS011;39546;45.534;12.048;2022-12-07T08:10:06;10.80;;;8.15;;
53642;SDS011;39546;45.534;12.048;2022-12-07T08:16:11;11.70;;;9.90;;
53642;SDS011;39546;45.534;12.048;2022-12-07T08:22:13;14.52;;;10.35;;
53642;SDS011;39546;45.534;12.048;2022-12-07T08:28:15;14.00;;;9.20;;
53642;SDS011;39546;45.534;12.048;2022-12-07T08:34:17;17.98;;;13.50;;
53642;SDS011;39546;45.534;12.048;2022-12-07T08:40:27;16.08;;;11.60;;
53642;SDS011;39546;45.534;12.048;2022-12-07T09:05:15;15.50;;;11.68;;
53642;SDS011;39546;45.534;12.048;2022-12-07T09:17:42;12.88;;;10.65;;
53642;SDS011;39546;45.534;12.048;2022-12-07T09:23:44;15.07;;;11.00;;
53642;SDS011;39546;45.534;12.048;2022-12-07T09:30:00;16.55;;;14.25;;
53642;SDS011;39546;45.534;12.048;2022-12-07T09:36:02;18.70;;;10.57;;
53642;SDS011;39546;45.534;12.048;2022-12-07T09:42:05;13.20;;;9.38;;
53642;SDS011;39546;45.534;12.048;2022-12-07T09:48:18;13.07;;;8.93;;
53642;SDS011;39546;45.534;12.048;2022-12-07T09:54:23;12.73;;;7.32;;
53642;SDS011;39546;45.534;12.048;2022-12-07T10:00:25;13.27;;;9.48;;
53642;SDS011;39546;45.534;12.048;2022-12-07T10:06:29;12.70;;;9.07;;
53642;SDS011;39546;45.534;12.048;2022-12-07T10:12:32;11.85;;;9.90;;
53642;SDS011;39546;45.534;12.048;2022-12-07T10:18:55;11.12;;;8.13;;
53642;SDS011;39546;45.534;12.048;2022-12-07T10:24:57;8.57;;;5.78;;
53642;SDS011;39546;45.534;12.048;2022-12-07T10:31:17;8.25;;;6.25;;
53642;SDS011;39546;45.534;12.048;2022-12-07T10:37:22;12.10;;;6.18;;
53642;SDS011;39546;45.534;12.048;2022-12-07T10:43:28;7.53;;;4.78;;
53642;SDS011;39546;45.534;12.048;2022-12-07T10:56:02;11.93;;;5.80;;
53642;SDS011;39546;45.534;12.048;2022-12-07T11:08:38;7.28;;;4.82;;
53642;SDS011;39546;45.534;12.048;2022-12-07T11:15:12;7.05;;;4.43;;
53642;SDS011;39546;45.534;12.048;2022-12-07T11:21:23;8.73;;;4.35;;
53642;SDS011;39546;45.534;12.048;2022-12-07T11:33:49;6.18;;;4.10;;
53642;SDS011;39546;45.534;12.048;2022-12-07T11:46:27;4.57;;;2.95;;
53642;SDS011;39546;45.534;12.048;2022-12-07T11:53:03;5.15;;;2.72;;
53642;SDS011;39546;45.534;12.048;2022-12-07T11:59:30;4.82;;;3.08;;
53642;SDS011;39546;45.534;12.048;2022-12-07T12:05:37;2.65;;;2.10;;
53642;SDS011;39546;45.534;12.048;2022-12-07T12:24:22;4.55;;;2.83;;
53642;SDS011;39546;45.534;12.048;2022-12-07T12:42:45;3.80;;;2.25;;
53642;SDS011;39546;45.534;12.048;2022-12-07T12:48:49;5.47;;;3.08;;
53642;SDS011;39546;45.534;12.048;2022-12-07T12:54:59;6.37;;;3.30;;
53642;SDS011;39546;45.534;12.048;2022-12-07T13:14:35;5.55;;;2.87;;
53642;SDS011;39546;45.534;12.048;2022-12-07T13:20:49;8.25;;;3.40;;
53642;SDS011;39546;45.534;12.048;2022-12-07T13:26:58;4.72;;;3.30;;
53642;SDS011;39546;45.534;12.048;2022-12-07T13:33:03;6.50;;;4.85;;
53642;SDS011;39546;45.534;12.048;2022-12-07T13:45:27;3.95;;;2.72;;
53642;SDS011;39546;45.534;12.048;2022-12-07T13:51:52;7.07;;;3.87;;
53642;SDS011;39546;45.534;12.048;2022-12-07T13:57:55;6.85;;;4.80;;
53642;SDS011;39546;45.534;12.048;2022-12-07T14:23:23;6.53;;;3.25;;
53642;SDS011;39546;45.534;12.048;2022-12-07T14:29:31;5.57;;;2.43;;
53642;SDS011;39546;45.534;12.048;2022-12-07T14:35:34;5.43;;;3.20;;
53642;SDS011;39546;45.534;12.048;2022-12-07T14:41:41;4.10;;;2.45;;
53642;SDS011;39546;45.534;12.048;2022-12-07T14:47:52;4.75;;;3.50;;
53642;SDS011;39546;45.534;12.048;2022-12-07T14:53:55;3.90;;;2.67;;
53642;SDS011;39546;45.534;12.048;2022-12-07T14:59:58;7.22;;;3.95;;
53642;SDS011;39546;45.534;12.048;2022-12-07T15:06:00;6.45;;;4.00;;
53642;SDS011;39546;45.534;12.048;2022-12-07T15:12:03;7.87;;;4.37;;
53642;SDS011;39546;45.534;12.048;2022-12-07T15:18:05;5.50;;;3.58;;
53642;SDS011;39546;45.534;12.048;2022-12-07T15:24:08;5.85;;;3.70;;
53642;SDS011;39546;45.534;12.048;2022-12-07T15:30:12;9.40;;;6.20;;
53642;SDS011;39546;45.534;12.048;2022-12-07T15:36:21;5.55;;;3.87;;
53642;SDS011;39546;45.534;12.048;2022-12-07T15:42:27;8.00;;;4.87;;
53642;SDS011;39546;45.534;12.048;2022-12-07T15:48:29;8.75;;;4.87;;
53642;SDS011;39546;45.534;12.048;2022-12-07T15:54:31;7.07;;;4.60;;
53642;SDS011;39546;45.534;12.048;2022-12-07T16:00:37;8.43;;;5.12;;
53642;SDS011;39546;45.534;12.048;2022-12-07T16:06:39;9.85;;;5.18;;
53642;SDS011;39546;45.534;12.048;2022-12-07T16:12:41;11.43;;;5.47;;
53642;SDS011;39546;45.534;12.048;2022-12-07T16:18:44;6.30;;;4.07;;
53642;SDS011;39546;45.534;12.048;2022-12-07T16:24:46;10.65;;;6.75;;
53642;SDS011;39546;45.534;12.048;2022-12-07T16:30:49;10.02;;;7.55;;
53642;SDS011;39546;45.534;12.048;2022-12-07T16:37:02;16.85;;;10.90;;
53642;SDS011;39546;45.534;12.048;2022-12-07T16:43:04;11.38;;;9.32;;
53642;SDS011;39546;45.534;12.048;2022-12-07T16:49:18;14.77;;;11.00;;
53642;SDS011;39546;45.534;12.048;2022-12-07T16:55:20;13.83;;;11.43;;
53642;SDS011;39546;45.534;12.048;2022-12-07T17:01:32;14.93;;;11.88;;
53642;SDS011;39546;45.534;12.048;2022-12-07T17:07:35;15.00;;;11.65;;
53642;SDS011;39546;45.534;12.048;2022-12-07T17:13:37;15.68;;;11.48;;
53642;SDS011;39546;45.534;12.048;2022-12-07T17:19:58;20.30;;;15.00;;
53642;SDS011;39546;45.534;12.048;2022-12-07T17:26:07;16.95;;;13.00;;
53642;SDS011;39546;45.534;12.048;2022-12-07T17:32:11;15.10;;;13.50;;
53642;SDS011;39546;45.534;12.048;2022-12-07T17:38:13;18.48;;;14.70;;
53642;SDS011;39546;45.534;12.048;2022-12-07T17:44:16;14.25;;;11.80;;
53642;SDS011;39546;45.534;12.048;2022-12-07T17:50:19;12.00;;;9.10;;
53642;SDS011;39546;45.534;12.048;2022-12-07T17:56:41;16.35;;;12.18;;
53642;SDS011;39546;45.534;12.048;2022-12-07T18:02:43;20.27;;;17.35;;
53642;SDS011;39546;45.534;12.048;2022-12-07T18:08:47;15.73;;;13.07;;
53642;SDS011;39546;45.534;12.048;2022-12-07T18:14:49;15.25;;;11.73;;
53642;SDS011;39546;45.534;12.048;2022-12-07T18:20:54;18.73;;;13.38;;
53642;SDS011;39546;45.534;12.048;2022-12-07T18:26:57;17.35;;;15.05;;
53642;SDS011;39546;45.534;12.048;2022-12-07T18:32:59;17.77;;;13.25;;
53642;SDS011;39546;45.534;12.048;2022-12-07T18:39:05;23.58;;;20.23;;
53642;SDS011;39546;45.534;12.048;2022-12-07T18:45:08;23.25;;;16.83;;
53642;SDS011;39546;45.534;12.048;2022-12-07T18:51:11;24.23;;;18.02;;
53642;SDS011;39546;45.534;12.048;2022-12-07T18:57:14;33.08;;;24.33;;
53642;SDS011;39546;45.534;12.048;2022-12-07T19:03:17;24.10;;;18.85;;
53642;SDS011;39546;45.534;12.048;2022-12-07T19:09:19;26.65;;;18.90;;
53642;SDS011;39546;45.534;12.048;2022-12-07T19:15:22;23.62;;;18.52;;
53642;SDS011;39546;45.534;12.048;2022-12-07T19:21:24;20.75;;;15.85;;
53642;SDS011;39546;45.534;12.048;2022-12-07T19:27:27;22.50;;;16.95;;
53642;SDS011;39546;45.534;12.048;2022-12-07T19:33:40;20.55;;;17.10;;
53642;SDS011;39546;45.534;12.048;2022-12-07T19:39:42;17.55;;;13.25;;
53642;SDS011;39546;45.534;12.048;2022-12-07T19:45:44;23.27;;;18.27;;
53642;SDS011;39546;45.534;12.048;2022-12-07T19:51:48;22.40;;;18.70;;
53642;SDS011;39546;45.534;12.048;2022-12-07T19:57:52;22.90;;;16.05;;
53642;SDS011;39546;45.534;12.048;2022-12-07T20:03:54;29.15;;;22.77;;
53642;SDS011;39546;45.534;12.048;2022-12-07T20:09:57;22.45;;;18.08;;
53642;SDS011;39546;45.534;12.048;2022-12-07T20:16:02;20.98;;;17.85;;
53642;SDS011;39546;45.534;12.048;2022-12-07T20:22:05;23.23;;;16.02;;
53642;SDS011;39546;45.534;12.048;2022-12-07T20:28:07;21.33;;;16.42;;
53642;SDS011;39546;45.534;12.048;2022-12-07T20:34:09;20.20;;;15.50;;
53642;SDS011;39546;45.534;12.048;2022-12-07T20:40:11;20.95;;;16.27;;
53642;SDS011;39546;45.534;12.048;2022-12-07T20:46:13;19.73;;;15.50;;
53642;SDS011;39546;45.534;12.048;2022-12-07T20:52:15;18.42;;;14.95;;
53642;SDS011;39546;45.534;12.048;2022-12-07T20:58:20;19.08;;;15.25;;
53642;SDS011;39546;45.534;12.048;2022-12-07T21:04:22;17.20;;;13.82;;
53642;SDS011;39546;45.534;12.048;2022-12-07T21:10:24;38.17;;;17.12;;
53642;SDS011;39546;45.534;12.048;2022-12-07T21:16:28;22.08;;;17.55;;
53642;SDS011;39546;45.534;12.048;2022-12-07T21:22:54;22.42;;;17.25;;
53642;SDS011;39546;45.534;12.048;2022-12-07T21:28:57;20.35;;;16.70;;
53642;SDS011;39546;45.534;12.048;2022-12-07T21:34:59;22.55;;;18.80;;
53642;SDS011;39546;45.534;12.048;2022-12-07T21:41:23;20.65;;;16.17;;
53642;SDS011;39546;45.534;12.048;2022-12-07T21:47:26;24.25;;;18.67;;
53642;SDS011;39546;45.534;12.048;2022-12-07T21:53:29;20.45;;;16.58;;
53642;SDS011;39546;45.534;12.048;2022-12-07T21:59:31;20.58;;;16.17;;
53642;SDS011;39546;45.534;12.048;2022-12-07T22:05:33;19.73;;;14.20;;
53642;SDS011;39546;45.534;12.048;2022-12-07T22:11:36;21.62;;;15.65;;
53642;SDS011;39546;45.534;12.048;2022-12-07T22:17:39;21.80;;;18.02;;
53642;SDS011;39546;45.534;12.048;2022-12-07T22:23:41;21.45;;;16.00;;
53642;SDS011;39546;45.534;12.048;2022-12-07T22:29:43;24.80;;;18.40;;
53642;SDS011;39546;45.534;12.048;2022-12-07T22:35:51;23.25;;;17.02;;
53642;SDS011;39546;45.534;12.048;2022-12-07T22:41:59;22.37;;;16.98;;
53642;SDS011;39546;45.534;12.048;2022-12-07T22:48:01;20.48;;;15.57;;
53642;SDS011;39546;45.534;12.048;2022-12-07T22:54:04;23.08;;;18.60;;
53642;SDS011;39546;45.534;12.048;2022-12-07T23:00:07;22.52;;;18.50;;
53642;SDS011;39546;45.534;12.048;2022-12-07T23:06:14;18.17;;;14.32;;
53642;SDS011;39546;45.534;12.048;2022-12-07T23:12:20;18.20;;;14.80;;
53642;SDS011;39546;45.534;12.048;2022-12-07T23:18:41;17.85;;;15.05;;
53642;SDS011;39546;45.534;12.048;2022-12-07T23:25:04;17.42;;;13.20;;
53642;SDS011;39546;45.534;12.048;2022-12-07T23:31:11;15.98;;;12.77;;
53642;SDS011;39546;45.534;12.048;2022-12-07T23:43:18;14.87;;;10.35;;
53642;SDS011;39546;45.534;12.048;2022-12-07T23:49:20;15.02;;;11.20;;
53642;SDS011;39546;45.534;12.048;2022-12-07T23:55:22;13.15;;;9.70;;
